sensor_id;sensor_type;location;lat;lon;timestamp;P1;durP1;ratioP1;P2;durP2;ratioP2
73283;SDS011;61519;60.050;18.582;2023-10-31T00:00:18;3.13;;;0.70;;
73283;SDS011;61519;60.050;18.582;2023-10-31T00:02:43;3.17;;;0.60;;
73283;SDS011;61519;60.050;18.582;2023-10-31T00:05:08;2.17;;;0.50;;
73283;SDS011;61519;60.050;18.582;2023-10-31T00:07:34;5.40;;;0.80;;
73283;SDS011;61519;60.050;18.582;2023-10-31T00:09:59;3.07;;;0.60;;
73283;SDS011;61519;60.050;18.582;2023-10-31T00:12:24;2.60;;;0.83;;
73283;SDS011;61519;60.050;18.582;2023-10-31T00:14:50;3.27;;;0.80;;
73283;SDS011;61519;60.050;18.582;2023-10-31T00:17:15;1.97;;;0.90;;
73283;SDS011;61519;60.050;18.582;2023-10-31T00:19:40;2.27;;;0.70;;
73283;SDS011;61519;60.050;18.582;2023-10-31T00:22:06;2.43;;;0.70;;
73283;SDS011;61519;60.050;18.582;2023-10-31T00:24:31;3.28;;;0.50;;
73283;SDS011;61519;60.050;18.582;2023-10-31T00:26:57;1.73;;;0.50;;
73283;SDS011;61519;60.050;18.582;2023-10-31T00:29:23;2.00;;;0.75;;
73283;SDS011;61519;60.050;18.582;2023-10-31T00:31:48;1.93;;;0.60;;
73283;SDS011;61519;60.050;18.582;2023-10-31T00:34:13;1.60;;;0.50;;
73283;SDS011;61519;60.050;18.582;2023-10-31T00:36:39;1.93;;;0.67;;
73283;SDS011;61519;60.050;18.582;2023-10-31T00:39:04;2.00;;;0.47;;
73283;SDS011;61519;60.050;18.582;2023-10-31T00:41:30;2.77;;;0.57;;
73283;SDS011;61519;60.050;18.582;2023-10-31T00:43:55;4.00;;;0.60;;
73283;SDS011;61519;60.050;18.582;2023-10-31T00:46:20;2.63;;;0.80;;
73283;SDS011;61519;60.050;18.582;2023-10-31T00:48:46;3.13;;;0.63;;
73283;SDS011;61519;60.050;18.582;2023-10-31T00:51:12;4.00;;;0.63;;
73283;SDS011;61519;60.050;18.582;2023-10-31T00:53:37;4.47;;;0.73;;
73283;SDS011;61519;60.050;18.582;2023-10-31T00:56:02;3.43;;;0.67;;
73283;SDS011;61519;60.050;18.582;2023-10-31T00:58:28;5.05;;;0.80;;
73283;SDS011;61519;60.050;18.582;2023-10-31T01:00:53;3.23;;;0.40;;
73283;SDS011;61519;60.050;18.582;2023-10-31T01:03:18;2.43;;;0.63;;
73283;SDS011;61519;60.050;18.582;2023-10-31T01:05:44;1.90;;;0.50;;
73283;SDS011;61519;60.050;18.582;2023-10-31T01:08:09;2.40;;;0.70;;
73283;SDS011;61519;60.050;18.582;2023-10-31T01:10:34;3.97;;;0.60;;
73283;SDS011;61519;60.050;18.582;2023-10-31T01:12:59;1.77;;;0.70;;
73283;SDS011;61519;60.050;18.582;2023-10-31T01:15:25;1.73;;;0.60;;
73283;SDS011;61519;60.050;18.582;2023-10-31T01:17:50;3.90;;;0.87;;
73283;SDS011;61519;60.050;18.582;2023-10-31T01:20:15;2.90;;;0.60;;
73283;SDS011;61519;60.050;18.582;2023-10-31T01:22:41;2.53;;;0.77;;
73283;SDS011;61519;60.050;18.582;2023-10-31T01:25:06;2.50;;;0.60;;
73283;SDS011;61519;60.050;18.582;2023-10-31T01:27:31;1.70;;;0.67;;
73283;SDS011;61519;60.050;18.582;2023-10-31T01:29:57;1.50;;;0.50;;
73283;SDS011;61519;60.050;18.582;2023-10-31T01:32:22;3.30;;;0.50;;
73283;SDS011;61519;60.050;18.582;2023-10-31T01:34:47;2.25;;;0.73;;
73283;SDS011;61519;60.050;18.582;2023-10-31T01:37:13;4.30;;;0.70;;
73283;SDS011;61519;60.050;18.582;2023-10-31T01:39:39;5.13;;;1.20;;
73283;SDS011;61519;60.050;18.582;2023-10-31T01:42:05;3.75;;;0.70;;
73283;SDS011;61519;60.050;18.582;2023-10-31T01:44:30;2.40;;;0.90;;
73283;SDS011;61519;60.050;18.582;2023-10-31T01:46:55;4.67;;;1.07;;
73283;SDS011;61519;60.050;18.582;2023-10-31T01:49:20;5.23;;;1.17;;
73283;SDS011;61519;60.050;18.582;2023-10-31T01:51:46;2.80;;;1.00;;
73283;SDS011;61519;60.050;18.582;2023-10-31T01:54:12;5.30;;;1.00;;
73283;SDS011;61519;60.050;18.582;2023-10-31T01:56:38;4.55;;;1.45;;
73283;SDS011;61519;60.050;18.582;2023-10-31T01:59:04;6.17;;;1.20;;
73283;SDS011;61519;60.050;18.582;2023-10-31T02:01:31;4.82;;;1.40;;
73283;SDS011;61519;60.050;18.582;2023-10-31T02:03:57;5.37;;;1.57;;
73283;SDS011;61519;60.050;18.582;2023-10-31T02:06:23;7.00;;;1.95;;
73283;SDS011;61519;60.050;18.582;2023-10-31T02:08:49;4.75;;;2.00;;
73283;SDS011;61519;60.050;18.582;2023-10-31T02:11:14;9.47;;;2.47;;
73283;SDS011;61519;60.050;18.582;2023-10-31T02:13:40;5.63;;;2.80;;
73283;SDS011;61519;60.050;18.582;2023-10-31T02:16:05;5.93;;;2.50;;
73283;SDS011;61519;60.050;18.582;2023-10-31T02:18:31;6.47;;;2.05;;
73283;SDS011;61519;60.050;18.582;2023-10-31T02:20:57;6.10;;;2.70;;
73283;SDS011;61519;60.050;18.582;2023-10-31T02:23:23;6.50;;;2.10;;
73283;SDS011;61519;60.050;18.582;2023-10-31T02:25:48;5.60;;;2.10;;
73283;SDS011;61519;60.050;18.582;2023-10-31T02:28:13;4.50;;;2.00;;
73283;SDS011;61519;60.050;18.582;2023-10-31T02:30:39;8.40;;;2.17;;
73283;SDS011;61519;60.050;18.582;2023-10-31T02:33:06;6.15;;;2.30;;
73283;SDS011;61519;60.050;18.582;2023-10-31T02:35:31;6.17;;;2.10;;
73283;SDS011;61519;60.050;18.582;2023-10-31T02:37:56;6.77;;;2.33;;
73283;SDS011;61519;60.050;18.582;2023-10-31T02:40:22;7.73;;;2.20;;
73283;SDS011;61519;60.050;18.582;2023-10-31T02:42:47;6.73;;;2.30;;
73283;SDS011;61519;60.050;18.582;2023-10-31T02:45:13;7.45;;;2.05;;
73283;SDS011;61519;60.050;18.582;2023-10-31T02:47:38;6.73;;;2.27;;
73283;SDS011;61519;60.050;18.582;2023-10-31T02:50:03;10.23;;;2.50;;
73283;SDS011;61519;60.050;18.582;2023-10-31T02:52:29;7.63;;;2.63;;
73283;SDS011;61519;60.050;18.582;2023-10-31T02:54:55;6.43;;;2.23;;
73283;SDS011;61519;60.050;18.582;2023-10-31T02:57:20;10.20;;;2.57;;
73283;SDS011;61519;60.050;18.582;2023-10-31T02:59:45;6.13;;;2.40;;
73283;SDS011;61519;60.050;18.582;2023-10-31T03:02:11;7.07;;;2.27;;
73283;SDS011;61519;60.050;18.582;2023-10-31T03:04:36;5.07;;;1.85;;
73283;SDS011;61519;60.050;18.582;2023-10-31T03:07:02;5.67;;;1.80;;
73283;SDS011;61519;60.050;18.582;2023-10-31T03:09:27;5.60;;;1.80;;
73283;SDS011;61519;60.050;18.582;2023-10-31T03:11:53;5.37;;;1.77;;
73283;SDS011;61519;60.050;18.582;2023-10-31T03:14:18;6.43;;;1.43;;
73283;SDS011;61519;60.050;18.582;2023-10-31T03:16:43;3.80;;;1.17;;
73283;SDS011;61519;60.050;18.582;2023-10-31T03:19:09;2.60;;;0.87;;
73283;SDS011;61519;60.050;18.582;2023-10-31T03:21:34;5.07;;;1.00;;
73283;SDS011;61519;60.050;18.582;2023-10-31T03:23:59;4.73;;;1.00;;
73283;SDS011;61519;60.050;18.582;2023-10-31T03:26:24;6.00;;;1.02;;
73283;SDS011;61519;60.050;18.582;2023-10-31T03:28:50;5.37;;;1.07;;
73283;SDS011;61519;60.050;18.582;2023-10-31T03:31:15;6.23;;;1.07;;
73283;SDS011;61519;60.050;18.582;2023-10-31T03:33:41;6.00;;;1.43;;
73283;SDS011;61519;60.050;18.582;2023-10-31T03:36:07;8.10;;;1.20;;
73283;SDS011;61519;60.050;18.582;2023-10-31T03:38:33;3.60;;;1.40;;
73283;SDS011;61519;60.050;18.582;2023-10-31T03:40:59;4.50;;;0.95;;
73283;SDS011;61519;60.050;18.582;2023-10-31T03:43:25;5.90;;;1.33;;
73283;SDS011;61519;60.050;18.582;2023-10-31T03:45:51;7.37;;;0.97;;
73283;SDS011;61519;60.050;18.582;2023-10-31T03:48:16;3.03;;;0.90;;
73283;SDS011;61519;60.050;18.582;2023-10-31T03:50:42;3.10;;;1.10;;
73283;SDS011;61519;60.050;18.582;2023-10-31T03:53:07;3.97;;;1.43;;
73283;SDS011;61519;60.050;18.582;2023-10-31T03:55:32;5.03;;;1.30;;
73283;SDS011;61519;60.050;18.582;2023-10-31T03:57:58;4.07;;;1.60;;
73283;SDS011;61519;60.050;18.582;2023-10-31T04:00:23;6.23;;;1.10;;
73283;SDS011;61519;60.050;18.582;2023-10-31T04:02:49;3.42;;;1.30;;
73283;SDS011;61519;60.050;18.582;2023-10-31T04:05:14;3.43;;;0.80;;
73283;SDS011;61519;60.050;18.582;2023-10-31T04:07:39;3.10;;;1.20;;
73283;SDS011;61519;60.050;18.582;2023-10-31T04:10:05;3.77;;;1.47;;
73283;SDS011;61519;60.050;18.582;2023-10-31T04:12:31;4.93;;;1.57;;
73283;SDS011;61519;60.050;18.582;2023-10-31T04:14:56;3.28;;;1.17;;
73283;SDS011;61519;60.050;18.582;2023-10-31T04:17:21;3.63;;;1.30;;
73283;SDS011;61519;60.050;18.582;2023-10-31T04:19:47;4.30;;;1.17;;
73283;SDS011;61519;60.050;18.582;2023-10-31T04:22:12;6.30;;;1.23;;
73283;SDS011;61519;60.050;18.582;2023-10-31T04:24:37;4.53;;;1.20;;
73283;SDS011;61519;60.050;18.582;2023-10-31T04:27:03;2.50;;;0.83;;
73283;SDS011;61519;60.050;18.582;2023-10-31T04:29:28;3.53;;;0.87;;
73283;SDS011;61519;60.050;18.582;2023-10-31T04:31:54;5.00;;;1.30;;
73283;SDS011;61519;60.050;18.582;2023-10-31T04:34:19;3.22;;;1.30;;
73283;SDS011;61519;60.050;18.582;2023-10-31T04:36:44;3.33;;;1.23;;
73283;SDS011;61519;60.050;18.582;2023-10-31T04:39:09;3.80;;;1.43;;
73283;SDS011;61519;60.050;18.582;2023-10-31T04:41:35;2.30;;;0.90;;
73283;SDS011;61519;60.050;18.582;2023-10-31T04:44:00;3.20;;;1.07;;
73283;SDS011;61519;60.050;18.582;2023-10-31T04:46:25;3.87;;;1.00;;
73283;SDS011;61519;60.050;18.582;2023-10-31T04:48:54;2.35;;;0.82;;
73283;SDS011;61519;60.050;18.582;2023-10-31T04:51:19;3.13;;;0.80;;
73283;SDS011;61519;60.050;18.582;2023-10-31T04:53:45;3.70;;;1.00;;
73283;SDS011;61519;60.050;18.582;2023-10-31T04:56:13;2.27;;;0.80;;
73283;SDS011;61519;60.050;18.582;2023-10-31T04:58:43;2.45;;;0.70;;
73283;SDS011;61519;60.050;18.582;2023-10-31T05:01:12;2.95;;;1.02;;
73283;SDS011;61519;60.050;18.582;2023-10-31T05:03:38;2.60;;;0.90;;
73283;SDS011;61519;60.050;18.582;2023-10-31T05:06:04;4.03;;;0.90;;
73283;SDS011;61519;60.050;18.582;2023-10-31T05:08:30;2.35;;;0.73;;
73283;SDS011;61519;60.050;18.582;2023-10-31T05:10:57;2.47;;;0.80;;
73283;SDS011;61519;60.050;18.582;2023-10-31T05:13:23;2.50;;;0.80;;
73283;SDS011;61519;60.050;18.582;2023-10-31T05:15:48;4.03;;;1.13;;
73283;SDS011;61519;60.050;18.582;2023-10-31T05:18:13;4.03;;;0.90;;
73283;SDS011;61519;60.050;18.582;2023-10-31T05:20:39;4.37;;;0.80;;
73283;SDS011;61519;60.050;18.582;2023-10-31T05:23:04;4.50;;;2.50;;
73283;SDS011;61519;60.050;18.582;2023-10-31T05:25:30;4.80;;;2.80;;
73283;SDS011;61519;60.050;18.582;2023-10-31T05:27:56;2.38;;;0.90;;
73283;SDS011;61519;60.050;18.582;2023-10-31T05:30:21;2.63;;;0.90;;
73283;SDS011;61519;60.050;18.582;2023-10-31T05:32:46;3.30;;;0.97;;
73283;SDS011;61519;60.050;18.582;2023-10-31T05:35:12;2.90;;;1.37;;
73283;SDS011;61519;60.050;18.582;2023-10-31T05:37:37;3.07;;;1.20;;
73283;SDS011;61519;60.050;18.582;2023-10-31T05:40:03;2.57;;;1.00;;
73283;SDS011;61519;60.050;18.582;2023-10-31T05:42:28;3.50;;;0.93;;
73283;SDS011;61519;60.050;18.582;2023-10-31T05:44:56;2.30;;;0.90;;
73283;SDS011;61519;60.050;18.582;2023-10-31T05:47:22;5.05;;;1.13;;
73283;SDS011;61519;60.050;18.582;2023-10-31T05:49:47;3.60;;;1.10;;
73283;SDS011;61519;60.050;18.582;2023-10-31T05:52:13;4.85;;;1.05;;
73283;SDS011;61519;60.050;18.582;2023-10-31T05:54:38;4.30;;;1.20;;
73283;SDS011;61519;60.050;18.582;2023-10-31T05:57:04;3.63;;;1.20;;
73283;SDS011;61519;60.050;18.582;2023-10-31T05:59:29;3.17;;;1.23;;
73283;SDS011;61519;60.050;18.582;2023-10-31T06:01:54;9.67;;;1.70;;
73283;SDS011;61519;60.050;18.582;2023-10-31T06:04:20;5.93;;;1.50;;
73283;SDS011;61519;60.050;18.582;2023-10-31T06:06:45;5.40;;;1.33;;
73283;SDS011;61519;60.050;18.582;2023-10-31T06:09:10;6.73;;;1.60;;
73283;SDS011;61519;60.050;18.582;2023-10-31T06:11:36;7.27;;;1.90;;
73283;SDS011;61519;60.050;18.582;2023-10-31T06:14:01;4.70;;;1.47;;
73283;SDS011;61519;60.050;18.582;2023-10-31T06:16:26;7.10;;;2.60;;
73283;SDS011;61519;60.050;18.582;2023-10-31T06:18:52;16.75;;;3.28;;
73283;SDS011;61519;60.050;18.582;2023-10-31T06:21:17;10.57;;;3.70;;
73283;SDS011;61519;60.050;18.582;2023-10-31T06:23:43;7.70;;;2.70;;
73283;SDS011;61519;60.050;18.582;2023-10-31T06:26:10;7.47;;;1.85;;
73283;SDS011;61519;60.050;18.582;2023-10-31T06:28:35;9.82;;;1.20;;
73283;SDS011;61519;60.050;18.582;2023-10-31T06:31:02;11.43;;;4.32;;
73283;SDS011;61519;60.050;18.582;2023-10-31T06:33:27;7.63;;;3.45;;
73283;SDS011;61519;60.050;18.582;2023-10-31T06:35:53;13.37;;;2.40;;
73283;SDS011;61519;60.050;18.582;2023-10-31T06:38:18;4.07;;;1.37;;
73283;SDS011;61519;60.050;18.582;2023-10-31T06:40:44;14.68;;;3.17;;
73283;SDS011;61519;60.050;18.582;2023-10-31T06:43:10;7.83;;;3.27;;
73283;SDS011;61519;60.050;18.582;2023-10-31T06:45:35;10.23;;;3.00;;
73283;SDS011;61519;60.050;18.582;2023-10-31T06:48:01;8.60;;;2.03;;
73283;SDS011;61519;60.050;18.582;2023-10-31T06:50:27;4.68;;;1.70;;
73283;SDS011;61519;60.050;18.582;2023-10-31T06:52:53;4.75;;;1.73;;
73283;SDS011;61519;60.050;18.582;2023-10-31T06:55:18;5.73;;;1.60;;
73283;SDS011;61519;60.050;18.582;2023-10-31T06:57:43;4.07;;;1.40;;
73283;SDS011;61519;60.050;18.582;2023-10-31T07:00:10;7.73;;;1.83;;
73283;SDS011;61519;60.050;18.582;2023-10-31T07:02:36;5.40;;;1.65;;
73283;SDS011;61519;60.050;18.582;2023-10-31T07:05:02;5.40;;;1.63;;
73283;SDS011;61519;60.050;18.582;2023-10-31T07:07:28;6.63;;;1.90;;
73283;SDS011;61519;60.050;18.582;2023-10-31T07:09:54;23.75;;;8.32;;
73283;SDS011;61519;60.050;18.582;2023-10-31T07:12:19;11.57;;;3.87;;
73283;SDS011;61519;60.050;18.582;2023-10-31T07:14:44;6.97;;;2.53;;
73283;SDS011;61519;60.050;18.582;2023-10-31T07:17:10;7.57;;;2.00;;
73283;SDS011;61519;60.050;18.582;2023-10-31T07:19:35;20.00;;;9.97;;
73283;SDS011;61519;60.050;18.582;2023-10-31T07:22:00;54.57;;;35.30;;
73283;SDS011;61519;60.050;18.582;2023-10-31T07:24:26;29.42;;;16.92;;
73283;SDS011;61519;60.050;18.582;2023-10-31T07:26:53;23.40;;;13.33;;
73283;SDS011;61519;60.050;18.582;2023-10-31T07:29:18;26.58;;;14.45;;
73283;SDS011;61519;60.050;18.582;2023-10-31T07:31:44;15.13;;;5.90;;
73283;SDS011;61519;60.050;18.582;2023-10-31T07:34:09;24.10;;;8.30;;
73283;SDS011;61519;60.050;18.582;2023-10-31T07:36:36;13.18;;;3.92;;
73283;SDS011;61519;60.050;18.582;2023-10-31T07:39:01;5.70;;;2.13;;
73283;SDS011;61519;60.050;18.582;2023-10-31T07:41:28;6.80;;;1.75;;
73283;SDS011;61519;60.050;18.582;2023-10-31T07:43:54;8.27;;;1.90;;
73283;SDS011;61519;60.050;18.582;2023-10-31T07:46:20;7.88;;;1.92;;
73283;SDS011;61519;60.050;18.582;2023-10-31T07:48:45;10.57;;;2.10;;
73283;SDS011;61519;60.050;18.582;2023-10-31T07:51:10;11.67;;;1.90;;
73283;SDS011;61519;60.050;18.582;2023-10-31T07:53:36;4.37;;;1.57;;
73283;SDS011;61519;60.050;18.582;2023-10-31T07:56:01;9.57;;;1.53;;
73283;SDS011;61519;60.050;18.582;2023-10-31T07:58:27;6.68;;;1.55;;
73283;SDS011;61519;60.050;18.582;2023-10-31T08:00:52;5.53;;;1.20;;
73283;SDS011;61519;60.050;18.582;2023-10-31T08:03:17;7.10;;;1.87;;
73283;SDS011;61519;60.050;18.582;2023-10-31T08:05:43;7.43;;;1.80;;
73283;SDS011;61519;60.050;18.582;2023-10-31T08:08:08;8.60;;;1.37;;
73283;SDS011;61519;60.050;18.582;2023-10-31T08:10:33;5.03;;;1.23;;
73283;SDS011;61519;60.050;18.582;2023-10-31T08:12:59;4.17;;;1.40;;
73283;SDS011;61519;60.050;18.582;2023-10-31T08:15:25;5.07;;;1.67;;
73283;SDS011;61519;60.050;18.582;2023-10-31T08:17:50;5.80;;;1.47;;
73283;SDS011;61519;60.050;18.582;2023-10-31T08:20:15;6.50;;;1.53;;
73283;SDS011;61519;60.050;18.582;2023-10-31T08:22:41;3.83;;;1.40;;
73283;SDS011;61519;60.050;18.582;2023-10-31T08:25:09;4.07;;;1.30;;
73283;SDS011;61519;60.050;18.582;2023-10-31T08:27:35;6.03;;;1.83;;
73283;SDS011;61519;60.050;18.582;2023-10-31T08:30:00;4.38;;;1.67;;
73283;SDS011;61519;60.050;18.582;2023-10-31T08:32:26;4.95;;;1.50;;
73283;SDS011;61519;60.050;18.582;2023-10-31T08:34:51;4.23;;;1.53;;
73283;SDS011;61519;60.050;18.582;2023-10-31T08:37:16;7.93;;;1.90;;
73283;SDS011;61519;60.050;18.582;2023-10-31T08:39:42;4.55;;;1.30;;
73283;SDS011;61519;60.050;18.582;2023-10-31T08:42:07;7.35;;;1.50;;
73283;SDS011;61519;60.050;18.582;2023-10-31T08:44:34;6.53;;;1.80;;
73283;SDS011;61519;60.050;18.582;2023-10-31T08:47:01;5.20;;;1.63;;
73283;SDS011;61519;60.050;18.582;2023-10-31T08:49:27;5.90;;;1.90;;
73283;SDS011;61519;60.050;18.582;2023-10-31T08:51:52;9.77;;;1.70;;
73283;SDS011;61519;60.050;18.582;2023-10-31T08:54:18;6.33;;;2.30;;
73283;SDS011;61519;60.050;18.582;2023-10-31T08:56:44;7.00;;;2.10;;
73283;SDS011;61519;60.050;18.582;2023-10-31T08:59:09;7.87;;;1.83;;
73283;SDS011;61519;60.050;18.582;2023-10-31T09:01:34;8.53;;;1.73;;
73283;SDS011;61519;60.050;18.582;2023-10-31T09:04:00;5.33;;;1.40;;
73283;SDS011;61519;60.050;18.582;2023-10-31T09:06:25;6.10;;;1.60;;
73283;SDS011;61519;60.050;18.582;2023-10-31T09:08:51;7.03;;;1.70;;
73283;SDS011;61519;60.050;18.582;2023-10-31T09:11:16;7.20;;;1.60;;
73283;SDS011;61519;60.050;18.582;2023-10-31T09:13:41;4.33;;;1.43;;
73283;SDS011;61519;60.050;18.582;2023-10-31T09:16:07;4.60;;;1.20;;
73283;SDS011;61519;60.050;18.582;2023-10-31T09:18:33;11.17;;;1.90;;
73283;SDS011;61519;60.050;18.582;2023-10-31T09:20:59;4.50;;;1.40;;
73283;SDS011;61519;60.050;18.582;2023-10-31T09:23:24;5.87;;;1.27;;
73283;SDS011;61519;60.050;18.582;2023-10-31T09:25:50;3.83;;;1.30;;
73283;SDS011;61519;60.050;18.582;2023-10-31T09:28:15;7.53;;;1.47;;
73283;SDS011;61519;60.050;18.582;2023-10-31T09:30:40;5.53;;;1.43;;
73283;SDS011;61519;60.050;18.582;2023-10-31T09:33:06;6.17;;;1.60;;
73283;SDS011;61519;60.050;18.582;2023-10-31T09:35:31;5.13;;;1.33;;
73283;SDS011;61519;60.050;18.582;2023-10-31T09:37:56;6.33;;;1.50;;
73283;SDS011;61519;60.050;18.582;2023-10-31T09:40:22;5.45;;;1.50;;
73283;SDS011;61519;60.050;18.582;2023-10-31T09:42:48;6.05;;;1.40;;
73283;SDS011;61519;60.050;18.582;2023-10-31T09:45:14;5.88;;;1.77;;
73283;SDS011;61519;60.050;18.582;2023-10-31T09:47:39;5.18;;;1.67;;
73283;SDS011;61519;60.050;18.582;2023-10-31T09:50:06;6.47;;;1.80;;
73283;SDS011;61519;60.050;18.582;2023-10-31T09:52:35;6.22;;;1.33;;
73283;SDS011;61519;60.050;18.582;2023-10-31T09:55:02;4.85;;;1.88;;
73283;SDS011;61519;60.050;18.582;2023-10-31T09:57:28;3.83;;;1.65;;
73283;SDS011;61519;60.050;18.582;2023-10-31T09:59:54;5.07;;;1.63;;
73283;SDS011;61519;60.050;18.582;2023-10-31T10:02:19;4.63;;;1.13;;
73283;SDS011;61519;60.050;18.582;2023-10-31T10:04:44;6.40;;;1.20;;
73283;SDS011;61519;60.050;18.582;2023-10-31T10:07:13;7.70;;;1.17;;
73283;SDS011;61519;60.050;18.582;2023-10-31T10:09:42;6.22;;;1.17;;
73283;SDS011;61519;60.050;18.582;2023-10-31T10:12:08;2.78;;;1.10;;
73283;SDS011;61519;60.050;18.582;2023-10-31T10:14:40;3.45;;;1.00;;
73283;SDS011;61519;60.050;18.582;2023-10-31T10:17:15;3.23;;;1.30;;
73283;SDS011;61519;60.050;18.582;2023-10-31T10:19:42;3.55;;;0.80;;
73283;SDS011;61519;60.050;18.582;2023-10-31T10:22:08;5.10;;;0.90;;
73283;SDS011;61519;60.050;18.582;2023-10-31T10:24:33;4.72;;;1.15;;
73283;SDS011;61519;60.050;18.582;2023-10-31T10:26:58;7.07;;;1.23;;
73283;SDS011;61519;60.050;18.582;2023-10-31T10:29:24;6.40;;;1.37;;
73283;SDS011;61519;60.050;18.582;2023-10-31T10:31:51;4.13;;;1.00;;
73283;SDS011;61519;60.050;18.582;2023-10-31T10:34:16;3.58;;;0.90;;
73283;SDS011;61519;60.050;18.582;2023-10-31T10:36:43;2.30;;;0.80;;
73283;SDS011;61519;60.050;18.582;2023-10-31T10:39:13;4.28;;;0.98;;
73283;SDS011;61519;60.050;18.582;2023-10-31T10:41:43;2.70;;;0.90;;
73283;SDS011;61519;60.050;18.582;2023-10-31T10:44:10;3.67;;;0.80;;
73283;SDS011;61519;60.050;18.582;2023-10-31T10:46:38;2.40;;;1.00;;
73283;SDS011;61519;60.050;18.582;2023-10-31T10:49:05;3.85;;;0.88;;
73283;SDS011;61519;60.050;18.582;2023-10-31T10:51:40;3.83;;;0.90;;
73283;SDS011;61519;60.050;18.582;2023-10-31T10:54:14;3.10;;;0.90;;
73283;SDS011;61519;60.050;18.582;2023-10-31T10:56:46;5.65;;;0.85;;
73283;SDS011;61519;60.050;18.582;2023-10-31T10:59:20;1.88;;;0.80;;
73283;SDS011;61519;60.050;18.582;2023-10-31T11:01:48;2.92;;;0.70;;
73283;SDS011;61519;60.050;18.582;2023-10-31T11:04:14;2.83;;;0.60;;
73283;SDS011;61519;60.050;18.582;2023-10-31T11:06:41;4.50;;;0.70;;
73283;SDS011;61519;60.050;18.582;2023-10-31T11:09:08;2.22;;;0.73;;
73283;SDS011;61519;60.050;18.582;2023-10-31T11:11:37;2.20;;;0.55;;
73283;SDS011;61519;60.050;18.582;2023-10-31T11:14:03;3.60;;;0.82;;
73283;SDS011;61519;60.050;18.582;2023-10-31T11:16:51;2.30;;;0.63;;
73283;SDS011;61519;60.050;18.582;2023-10-31T11:19:17;2.47;;;0.90;;
73283;SDS011;61519;60.050;18.582;2023-10-31T11:22:05;3.73;;;0.87;;
73283;SDS011;61519;60.050;18.582;2023-10-31T11:24:33;2.40;;;0.75;;
73283;SDS011;61519;60.050;18.582;2023-10-31T11:27:01;2.60;;;0.60;;
73283;SDS011;61519;60.050;18.582;2023-10-31T11:29:30;4.50;;;1.35;;
73283;SDS011;61519;60.050;18.582;2023-10-31T11:31:56;3.50;;;0.70;;
73283;SDS011;61519;60.050;18.582;2023-10-31T11:34:22;3.30;;;0.60;;
73283;SDS011;61519;60.050;18.582;2023-10-31T11:36:48;1.63;;;0.60;;
73283;SDS011;61519;60.050;18.582;2023-10-31T11:39:17;1.65;;;0.50;;
73283;SDS011;61519;60.050;18.582;2023-10-31T11:41:49;2.05;;;0.60;;
73283;SDS011;61519;60.050;18.582;2023-10-31T11:44:15;1.33;;;0.60;;
73283;SDS011;61519;60.050;18.582;2023-10-31T11:46:41;2.25;;;0.60;;
73283;SDS011;61519;60.050;18.582;2023-10-31T11:49:06;1.83;;;0.50;;
73283;SDS011;61519;60.050;18.582;2023-10-31T11:51:33;4.68;;;0.70;;
73283;SDS011;61519;60.050;18.582;2023-10-31T11:53:59;1.63;;;0.50;;
73283;SDS011;61519;60.050;18.582;2023-10-31T11:56:26;1.63;;;0.40;;
73283;SDS011;61519;60.050;18.582;2023-10-31T11:58:55;1.90;;;0.73;;
73283;SDS011;61519;60.050;18.582;2023-10-31T12:01:27;1.52;;;0.50;;
73283;SDS011;61519;60.050;18.582;2023-10-31T12:03:52;2.20;;;0.57;;
73283;SDS011;61519;60.050;18.582;2023-10-31T12:06:18;1.75;;;0.50;;
73283;SDS011;61519;60.050;18.582;2023-10-31T12:08:45;1.83;;;0.57;;
73283;SDS011;61519;60.050;18.582;2023-10-31T12:11:16;1.42;;;0.50;;
73283;SDS011;61519;60.050;18.582;2023-10-31T12:16:29;2.58;;;0.80;;
73283;SDS011;61519;60.050;18.582;2023-10-31T12:19:02;2.00;;;0.57;;
73283;SDS011;61519;60.050;18.582;2023-10-31T12:21:37;2.38;;;0.55;;
73283;SDS011;61519;60.050;18.582;2023-10-31T12:24:05;3.05;;;0.60;;
73283;SDS011;61519;60.050;18.582;2023-10-31T12:26:32;2.25;;;0.50;;
73283;SDS011;61519;60.050;18.582;2023-10-31T12:29:16;5.40;;;0.60;;
73283;SDS011;61519;60.050;18.582;2023-10-31T12:31:46;1.48;;;0.50;;
73283;SDS011;61519;60.050;18.582;2023-10-31T12:34:14;2.60;;;0.70;;
73283;SDS011;61519;60.050;18.582;2023-10-31T12:36:41;2.33;;;0.80;;
73283;SDS011;61519;60.050;18.582;2023-10-31T12:39:09;2.25;;;0.65;;
73283;SDS011;61519;60.050;18.582;2023-10-31T12:41:36;3.10;;;0.67;;
73283;SDS011;61519;60.050;18.582;2023-10-31T12:44:02;1.60;;;0.43;;
73283;SDS011;61519;60.050;18.582;2023-10-31T12:46:30;1.52;;;0.43;;
73283;SDS011;61519;60.050;18.582;2023-10-31T12:48:56;1.77;;;0.68;;
73283;SDS011;61519;60.050;18.582;2023-10-31T12:51:22;1.53;;;0.50;;
73283;SDS011;61519;60.050;18.582;2023-10-31T12:53:52;2.05;;;0.55;;
73283;SDS011;61519;60.050;18.582;2023-10-31T12:59:06;1.65;;;0.50;;
73283;SDS011;61519;60.050;18.582;2023-10-31T13:01:33;0.83;;;0.33;;
73283;SDS011;61519;60.050;18.582;2023-10-31T13:04:01;2.92;;;0.55;;
73283;SDS011;61519;60.050;18.582;2023-10-31T13:06:27;1.85;;;0.60;;
73283;SDS011;61519;60.050;18.582;2023-10-31T13:08:54;1.67;;;0.67;;
73283;SDS011;61519;60.050;18.582;2023-10-31T13:11:21;1.40;;;0.50;;
73283;SDS011;61519;60.050;18.582;2023-10-31T13:13:50;1.75;;;0.40;;
73283;SDS011;61519;60.050;18.582;2023-10-31T13:16:16;2.97;;;0.50;;
73283;SDS011;61519;60.050;18.582;2023-10-31T13:18:42;1.87;;;0.50;;
73283;SDS011;61519;60.050;18.582;2023-10-31T13:21:07;5.10;;;0.60;;
73283;SDS011;61519;60.050;18.582;2023-10-31T13:23:33;1.80;;;0.60;;
73283;SDS011;61519;60.050;18.582;2023-10-31T13:25:59;1.60;;;0.40;;
73283;SDS011;61519;60.050;18.582;2023-10-31T13:28:24;2.77;;;0.50;;
73283;SDS011;61519;60.050;18.582;2023-10-31T13:30:50;1.37;;;0.40;;
73283;SDS011;61519;60.050;18.582;2023-10-31T13:33:15;2.20;;;0.70;;
73283;SDS011;61519;60.050;18.582;2023-10-31T13:35:40;1.53;;;0.50;;
73283;SDS011;61519;60.050;18.582;2023-10-31T13:38:05;2.07;;;0.63;;
73283;SDS011;61519;60.050;18.582;2023-10-31T13:40:31;1.83;;;0.50;;
73283;SDS011;61519;60.050;18.582;2023-10-31T13:42:56;2.17;;;0.60;;
73283;SDS011;61519;60.050;18.582;2023-10-31T13:45:21;1.47;;;0.43;;
73283;SDS011;61519;60.050;18.582;2023-10-31T13:47:47;1.40;;;0.40;;
73283;SDS011;61519;60.050;18.582;2023-10-31T13:50:12;1.63;;;0.40;;
73283;SDS011;61519;60.050;18.582;2023-10-31T13:52:37;2.27;;;0.60;;
73283;SDS011;61519;60.050;18.582;2023-10-31T13:55:04;1.30;;;0.40;;
73283;SDS011;61519;60.050;18.582;2023-10-31T13:57:29;1.08;;;0.30;;
73283;SDS011;61519;60.050;18.582;2023-10-31T13:59:55;1.30;;;0.50;;
73283;SDS011;61519;60.050;18.582;2023-10-31T14:02:20;1.33;;;0.60;;
73283;SDS011;61519;60.050;18.582;2023-10-31T14:04:46;2.60;;;0.57;;
73283;SDS011;61519;60.050;18.582;2023-10-31T14:07:13;3.47;;;0.50;;
73283;SDS011;61519;60.050;18.582;2023-10-31T14:09:46;1.50;;;0.43;;
73283;SDS011;61519;60.050;18.582;2023-10-31T14:12:13;1.63;;;0.50;;
73283;SDS011;61519;60.050;18.582;2023-10-31T14:14:38;1.70;;;0.60;;
73283;SDS011;61519;60.050;18.582;2023-10-31T14:17:03;1.27;;;0.40;;
73283;SDS011;61519;60.050;18.582;2023-10-31T14:19:30;1.45;;;0.50;;
73283;SDS011;61519;60.050;18.582;2023-10-31T14:21:55;2.17;;;0.47;;
73283;SDS011;61519;60.050;18.582;2023-10-31T14:24:20;1.23;;;0.37;;
73283;SDS011;61519;60.050;18.582;2023-10-31T14:26:47;1.50;;;0.50;;
73283;SDS011;61519;60.050;18.582;2023-10-31T14:29:12;1.43;;;0.40;;
73283;SDS011;61519;60.050;18.582;2023-10-31T14:31:41;1.20;;;0.40;;